sensor_id;sensor_type;location;lat;lon;timestamp;temperature;humidity
34279;DHT22;20538;51.528;9.942;2022-10-26T00:00:27;8.40;99.90
34279;DHT22;20538;51.528;9.942;2022-10-26T00:02:54;8.40;99.90
34279;DHT22;20538;51.528;9.942;2022-10-26T00:05:20;8.40;99.90
34279;DHT22;20538;51.528;9.942;2022-10-26T00:07:47;8.40;99.90
34279;DHT22;20538;51.528;9.942;2022-10-26T00:10:12;8.50;99.90
34279;DHT22;20538;51.528;9.942;2022-10-26T00:12:38;8.40;99.90
34279;DHT22;20538;51.528;9.942;2022-10-26T00:15:05;8.40;99.90
34279;DHT22;20538;51.528;9.942;2022-10-26T00:17:30;8.40;99.90
34279;DHT22;20538;51.528;9.942;2022-10-26T00:19:56;8.30;99.90
34279;DHT22;20538;51.528;9.942;2022-10-26T00:22:22;8.40;99.90
34279;DHT22;20538;51.528;9.942;2022-10-26T00:24:48;8.30;99.90
34279;DHT22;20538;51.528;9.942;2022-10-26T00:27:14;8.30;99.90
34279;DHT22;20538;51.528;9.942;2022-10-26T00:29:39;8.30;99.90
34279;DHT22;20538;51.528;9.942;2022-10-26T00:32:05;8.30;99.90
34279;DHT22;20538;51.528;9.942;2022-10-26T00:34:31;8.40;99.90
34279;DHT22;20538;51.528;9.942;2022-10-26T00:36:57;8.40;99.90
34279;DHT22;20538;51.528;9.942;2022-10-26T00:39:22;8.40;99.90
34279;DHT22;20538;51.528;9.942;2022-10-26T00:41:48;8.40;99.90
34279;DHT22;20538;51.528;9.942;2022-10-26T00:47:39;8.50;99.90
34279;DHT22;20538;51.528;9.942;2022-10-26T00:50:17;8.60;99.90
34279;DHT22;20538;51.528;9.942;2022-10-26T00:52:45;8.70;99.90
34279;DHT22;20538;51.528;9.942;2022-10-26T00:55:11;8.70;99.90
34279;DHT22;20538;51.528;9.942;2022-10-26T00:57:38;8.70;99.90
34279;DHT22;20538;51.528;9.942;2022-10-26T01:00:06;8.70;99.90
34279;DHT22;20538;51.528;9.942;2022-10-26T01:02:32;8.60;99.90
34279;DHT22;20538;51.528;9.942;2022-10-26T01:04:58;8.50;99.90
34279;DHT22;20538;51.528;9.942;2022-10-26T01:07:25;8.50;99.90
34279;DHT22;20538;51.528;9.942;2022-10-26T01:09:52;8.50;99.90
34279;DHT22;20538;51.528;9.942;2022-10-26T01:12:19;8.50;99.90
34279;DHT22;20538;51.528;9.942;2022-10-26T01:14:45;8.50;99.90
34279;DHT22;20538;51.528;9.942;2022-10-26T01:22:31;8.70;99.90
34279;DHT22;20538;51.528;9.942;2022-10-26T01:27:45;8.80;99.90
34279;DHT22;20538;51.528;9.942;2022-10-26T01:36:09;8.90;99.90
34279;DHT22;20538;51.528;9.942;2022-10-26T01:41:32;8.90;99.90
34279;DHT22;20538;51.528;9.942;2022-10-26T01:44:09;8.90;99.90
34279;DHT22;20538;51.528;9.942;2022-10-26T01:46:39;8.90;99.90
34279;DHT22;20538;51.528;9.942;2022-10-26T01:49:09;8.80;99.90
34279;DHT22;20538;51.528;9.942;2022-10-26T01:51:38;8.80;99.90
34279;DHT22;20538;51.528;9.942;2022-10-26T01:54:04;8.90;99.90
34279;DHT22;20538;51.528;9.942;2022-10-26T01:56:35;8.90;99.90
34279;DHT22;20538;51.528;9.942;2022-10-26T02:07:03;8.80;99.90
34279;DHT22;20538;51.528;9.942;2022-10-26T02:15:34;8.80;99.90
34279;DHT22;20538;51.528;9.942;2022-10-26T02:18:20;8.80;99.90
34279;DHT22;20538;51.528;9.942;2022-10-26T02:20:52;8.80;99.90
34279;DHT22;20538;51.528;9.942;2022-10-26T02:23:19;8.80;99.90
34279;DHT22;20538;51.528;9.942;2022-10-26T02:25:53;8.80;99.90
34279;DHT22;20538;51.528;9.942;2022-10-26T02:28:24;8.90;99.90
34279;DHT22;20538;51.528;9.942;2022-10-26T02:30:54;8.90;99.90
34279;DHT22;20538;51.528;9.942;2022-10-26T02:33:23;8.80;99.90
34279;DHT22;20538;51.528;9.942;2022-10-26T02:35:52;8.70;99.90
34279;DHT22;20538;51.528;9.942;2022-10-26T02:38:19;8.70;99.90
34279;DHT22;20538;51.528;9.942;2022-10-26T02:40:47;8.70;99.90
34279;DHT22;20538;51.528;9.942;2022-10-26T02:43:15;8.70;99.90
34279;DHT22;20538;51.528;9.942;2022-10-26T02:45:50;8.70;99.90
34279;DHT22;20538;51.528;9.942;2022-10-26T02:48:16;8.70;99.90
34279;DHT22;20538;51.528;9.942;2022-10-26T02:50:49;8.70;99.90
34279;DHT22;20538;51.528;9.942;2022-10-26T02:55:50;8.50;99.90
34279;DHT22;20538;51.528;9.942;2022-10-26T02:58:26;8.60;99.90
34279;DHT22;20538;51.528;9.942;2022-10-26T03:00:54;8.60;99.90
34279;DHT22;20538;51.528;9.942;2022-10-26T03:03:20;8.60;99.90
34279;DHT22;20538;51.528;9.942;2022-10-26T03:05:46;8.60;99.90
34279;DHT22;20538;51.528;9.942;2022-10-26T03:08:12;8.50;99.90
34279;DHT22;20538;51.528;9.942;2022-10-26T03:10:42;8.50;99.90
34279;DHT22;20538;51.528;9.942;2022-10-26T03:13:09;8.40;99.90
34279;DHT22;20538;51.528;9.942;2022-10-26T03:15:35;8.40;99.90
34279;DHT22;20538;51.528;9.942;2022-10-26T03:18:01;8.40;99.90
34279;DHT22;20538;51.528;9.942;2022-10-26T03:20:26;8.40;99.90
34279;DHT22;20538;51.528;9.942;2022-10-26T03:22:52;8.30;99.90
34279;DHT22;20538;51.528;9.942;2022-10-26T03:25:17;8.30;99.90
34279;DHT22;20538;51.528;9.942;2022-10-26T03:27:43;8.40;99.90
34279;DHT22;20538;51.528;9.942;2022-10-26T03:30:09;8.40;99.90
34279;DHT22;20538;51.528;9.942;2022-10-26T03:32:35;8.30;99.90
34279;DHT22;20538;51.528;9.942;2022-10-26T03:35:01;8.30;99.90
34279;DHT22;20538;51.528;9.942;2022-10-26T03:37:27;8.30;99.90
34279;DHT22;20538;51.528;9.942;2022-10-26T03:39:52;8.30;99.90
34279;DHT22;20538;51.528;9.942;2022-10-26T03:42:18;8.30;99.90
34279;DHT22;20538;51.528;9.942;2022-10-26T03:44:43;8.30;99.90
34279;DHT22;20538;51.528;9.942;2022-10-26T03:47:11;8.30;99.90
34279;DHT22;20538;51.528;9.942;2022-10-26T03:49:37;8.30;99.90
34279;DHT22;20538;51.528;9.942;2022-10-26T03:52:02;8.30;99.90
34279;DHT22;20538;51.528;9.942;2022-10-26T03:54:28;8.30;99.90
34279;DHT22;20538;51.528;9.942;2022-10-26T03:56:53;8.40;99.90
34279;DHT22;20538;51.528;9.942;2022-10-26T03:59:19;8.40;99.90
34279;DHT22;20538;51.528;9.942;2022-10-26T04:01:45;8.30;99.90
34279;DHT22;20538;51.528;9.942;2022-10-26T04:04:10;8.30;99.90
34279;DHT22;20538;51.528;9.942;2022-10-26T04:06:36;8.30;99.90
34279;DHT22;20538;51.528;9.942;2022-10-26T04:09:01;8.30;99.90
34279;DHT22;20538;51.528;9.942;2022-10-26T04:11:28;8.30;99.90
34279;DHT22;20538;51.528;9.942;2022-10-26T04:13:54;8.30;99.90
34279;DHT22;20538;51.528;9.942;2022-10-26T04:16:20;8.40;99.90
34279;DHT22;20538;51.528;9.942;2022-10-26T04:18:46;8.30;99.90
34279;DHT22;20538;51.528;9.942;2022-10-26T04:21:12;8.30;99.90
34279;DHT22;20538;51.528;9.942;2022-10-26T04:23:37;8.30;99.90
34279;DHT22;20538;51.528;9.942;2022-10-26T04:26:04;8.30;99.90
34279;DHT22;20538;51.528;9.942;2022-10-26T04:28:30;8.40;99.90
34279;DHT22;20538;51.528;9.942;2022-10-26T04:30:55;8.30;99.90
34279;DHT22;20538;51.528;9.942;2022-10-26T04:33:21;8.30;99.90
34279;DHT22;20538;51.528;9.942;2022-10-26T04:35:46;8.30;99.90
34279;DHT22;20538;51.528;9.942;2022-10-26T04:38:12;8.30;99.90
34279;DHT22;20538;51.528;9.942;2022-10-26T04:40:38;8.20;99.90
34279;DHT22;20538;51.528;9.942;2022-10-26T04:43:04;8.30;99.90
34279;DHT22;20538;51.528;9.942;2022-10-26T04:45:30;8.40;99.90
34279;DHT22;20538;51.528;9.942;2022-10-26T04:48:07;8.40;99.90
34279;DHT22;20538;51.528;9.942;2022-10-26T04:50:35;8.40;99.90
34279;DHT22;20538;51.528;9.942;2022-10-26T04:53:00;8.50;99.90
34279;DHT22;20538;51.528;9.942;2022-10-26T04:55:26;8.50;99.90
34279;DHT22;20538;51.528;9.942;2022-10-26T04:57:52;8.50;99.90
34279;DHT22;20538;51.528;9.942;2022-10-26T05:00:18;8.60;99.90
34279;DHT22;20538;51.528;9.942;2022-10-26T05:02:44;8.50;99.90
34279;DHT22;20538;51.528;9.942;2022-10-26T05:05:10;8.60;99.90
34279;DHT22;20538;51.528;9.942;2022-10-26T05:07:35;8.60;99.90
34279;DHT22;20538;51.528;9.942;2022-10-26T05:10:01;8.70;99.90
34279;DHT22;20538;51.528;9.942;2022-10-26T05:12:27;8.70;99.90
34279;DHT22;20538;51.528;9.942;2022-10-26T05:14:52;8.70;99.90
34279;DHT22;20538;51.528;9.942;2022-10-26T05:17:26;8.70;99.90
34279;DHT22;20538;51.528;9.942;2022-10-26T05:19:52;8.70;99.90
34279;DHT22;20538;51.528;9.942;2022-10-26T05:22:26;8.70;99.90
34279;DHT22;20538;51.528;9.942;2022-10-26T05:24:51;8.70;99.90
34279;DHT22;20538;51.528;9.942;2022-10-26T05:27:17;8.70;99.90
34279;DHT22;20538;51.528;9.942;2022-10-26T05:29:42;8.80;99.90
34279;DHT22;20538;51.528;9.942;2022-10-26T05:32:08;8.80;99.90
34279;DHT22;20538;51.528;9.942;2022-10-26T05:34:34;8.90;99.90
34279;DHT22;20538;51.528;9.942;2022-10-26T05:37:00;9.00;99.90
34279;DHT22;20538;51.528;9.942;2022-10-26T05:39:25;9.00;99.90
34279;DHT22;20538;51.528;9.942;2022-10-26T05:41:53;9.00;99.90
34279;DHT22;20538;51.528;9.942;2022-10-26T05:44:19;9.00;99.90
34279;DHT22;20538;51.528;9.942;2022-10-26T05:46:46;9.00;99.90
34279;DHT22;20538;51.528;9.942;2022-10-26T05:49:11;9.00;99.90
34279;DHT22;20538;51.528;9.942;2022-10-26T05:51:37;9.00;99.90
34279;DHT22;20538;51.528;9.942;2022-10-26T05:54:04;9.00;99.90
34279;DHT22;20538;51.528;9.942;2022-10-26T05:56:34;9.10;99.90
34279;DHT22;20538;51.528;9.942;2022-10-26T05:59:00;9.10;99.90
34279;DHT22;20538;51.528;9.942;2022-10-26T06:06:40;9.20;99.90
34279;DHT22;20538;51.528;9.942;2022-10-26T06:09:12;9.20;99.90
34279;DHT22;20538;51.528;9.942;2022-10-26T06:11:38;9.20;99.90
34279;DHT22;20538;51.528;9.942;2022-10-26T06:14:04;9.30;99.90
34279;DHT22;20538;51.528;9.942;2022-10-26T06:25:22;9.30;99.90
34279;DHT22;20538;51.528;9.942;2022-10-26T06:30:26;9.30;99.90
34279;DHT22;20538;51.528;9.942;2022-10-26T06:32:52;9.40;99.90
34279;DHT22;20538;51.528;9.942;2022-10-26T06:38:18;9.40;99.90
34279;DHT22;20538;51.528;9.942;2022-10-26T06:40:47;9.40;99.90
34279;DHT22;20538;51.528;9.942;2022-10-26T06:43:28;9.50;99.90
34279;DHT22;20538;51.528;9.942;2022-10-26T06:48:35;9.60;99.90
34279;DHT22;20538;51.528;9.942;2022-10-26T06:51:04;9.60;99.90
34279;DHT22;20538;51.528;9.942;2022-10-26T06:53:33;9.70;99.90
34279;DHT22;20538;51.528;9.942;2022-10-26T06:56:00;9.60;99.90
34279;DHT22;20538;51.528;9.942;2022-10-26T06:58:32;9.70;99.90
34279;DHT22;20538;51.528;9.942;2022-10-26T07:00:59;9.80;99.90
34279;DHT22;20538;51.528;9.942;2022-10-26T07:03:24;9.90;99.90
34279;DHT22;20538;51.528;9.942;2022-10-26T07:05:50;9.90;99.90
34279;DHT22;20538;51.528;9.942;2022-10-26T07:08:16;9.90;99.90
34279;DHT22;20538;51.528;9.942;2022-10-26T07:10:42;9.90;99.90
34279;DHT22;20538;51.528;9.942;2022-10-26T07:13:10;10.00;99.90
34279;DHT22;20538;51.528;9.942;2022-10-26T07:15:38;9.90;99.90
34279;DHT22;20538;51.528;9.942;2022-10-26T07:18:05;9.90;99.90
34279;DHT22;20538;51.528;9.942;2022-10-26T07:20:34;9.90;99.90
34279;DHT22;20538;51.528;9.942;2022-10-26T07:23:00;10.00;99.90
34279;DHT22;20538;51.528;9.942;2022-10-26T07:25:26;10.00;99.90
34279;DHT22;20538;51.528;9.942;2022-10-26T07:27:59;10.10;99.90
34279;DHT22;20538;51.528;9.942;2022-10-26T07:30:29;10.20;99.90
34279;DHT22;20538;51.528;9.942;2022-10-26T07:33:06;10.20;99.90
34279;DHT22;20538;51.528;9.942;2022-10-26T07:35:32;10.30;99.90
34279;DHT22;20538;51.528;9.942;2022-10-26T07:37:58;10.40;99.90
34279;DHT22;20538;51.528;9.942;2022-10-26T07:40:25;10.40;99.90
34279;DHT22;20538;51.528;9.942;2022-10-26T07:42:51;10.50;99.90
34279;DHT22;20538;51.528;9.942;2022-10-26T07:45:17;10.50;99.90
34279;DHT22;20538;51.528;9.942;2022-10-26T07:47:43;10.70;99.90
34279;DHT22;20538;51.528;9.942;2022-10-26T07:50:11;10.80;99.90
34279;DHT22;20538;51.528;9.942;2022-10-26T07:52:37;10.90;99.90
34279;DHT22;20538;51.528;9.942;2022-10-26T07:55:04;11.00;99.90
34279;DHT22;20538;51.528;9.942;2022-10-26T07:57:30;11.00;99.90
34279;DHT22;20538;51.528;9.942;2022-10-26T07:59:55;11.10;99.90
34279;DHT22;20538;51.528;9.942;2022-10-26T08:02:21;11.10;99.90
34279;DHT22;20538;51.528;9.942;2022-10-26T08:05:12;11.20;99.90
34279;DHT22;20538;51.528;9.942;2022-10-26T08:08:11;11.30;99.90
34279;DHT22;20538;51.528;9.942;2022-10-26T08:11:04;11.40;99.90
34279;DHT22;20538;51.528;9.942;2022-10-26T08:13:30;11.60;99.90
34279;DHT22;20538;51.528;9.942;2022-10-26T08:16:00;11.70;99.90
34279;DHT22;20538;51.528;9.942;2022-10-26T08:18:35;11.80;99.90
34279;DHT22;20538;51.528;9.942;2022-10-26T08:21:06;12.10;99.90
34279;DHT22;20538;51.528;9.942;2022-10-26T08:23:40;12.20;99.90
34279;DHT22;20538;51.528;9.942;2022-10-26T08:26:06;12.40;99.90
34279;DHT22;20538;51.528;9.942;2022-10-26T08:28:31;12.50;99.90
34279;DHT22;20538;51.528;9.942;2022-10-26T08:30:57;12.60;99.90
34279;DHT22;20538;51.528;9.942;2022-10-26T08:33:26;12.60;99.90
34279;DHT22;20538;51.528;9.942;2022-10-26T08:35:58;12.60;99.90
34279;DHT22;20538;51.528;9.942;2022-10-26T08:38:24;12.60;99.90
34279;DHT22;20538;51.528;9.942;2022-10-26T08:40:50;12.70;99.90
34279;DHT22;20538;51.528;9.942;2022-10-26T08:46:14;12.90;99.90
34279;DHT22;20538;51.528;9.942;2022-10-26T08:48:47;12.80;99.90
34279;DHT22;20538;51.528;9.942;2022-10-26T08:51:21;12.90;99.90
34279;DHT22;20538;51.528;9.942;2022-10-26T08:54:03;13.00;99.90
34279;DHT22;20538;51.528;9.942;2022-10-26T08:56:42;13.10;99.90
34279;DHT22;20538;51.528;9.942;2022-10-26T09:01:51;13.00;99.90
34279;DHT22;20538;51.528;9.942;2022-10-26T09:04:17;12.90;99.90
34279;DHT22;20538;51.528;9.942;2022-10-26T09:06:55;13.00;99.90
34279;DHT22;20538;51.528;9.942;2022-10-26T09:09:33;13.00;99.90
34279;DHT22;20538;51.528;9.942;2022-10-26T09:17:46;13.30;99.90
34279;DHT22;20538;51.528;9.942;2022-10-26T09:20:31;13.50;99.90
34279;DHT22;20538;51.528;9.942;2022-10-26T09:25:46;13.70;99.90
34279;DHT22;20538;51.528;9.942;2022-10-26T09:28:17;13.80;99.90
34279;DHT22;20538;51.528;9.942;2022-10-26T09:30:44;13.90;99.90
34279;DHT22;20538;51.528;9.942;2022-10-26T09:33:20;14.10;99.90
34279;DHT22;20538;51.528;9.942;2022-10-26T09:41:36;14.30;99.90
34279;DHT22;20538;51.528;9.942;2022-10-26T09:46:54;14.40;99.90
34279;DHT22;20538;51.528;9.942;2022-10-26T09:49:25;14.40;99.90
34279;DHT22;20538;51.528;9.942;2022-10-26T09:51:54;14.50;99.90
34279;DHT22;20538;51.528;9.942;2022-10-26T09:54:20;14.60;99.90
34279;DHT22;20538;51.528;9.942;2022-10-26T09:56:52;14.70;99.90
34279;DHT22;20538;51.528;9.942;2022-10-26T09:59:22;14.70;99.90
34279;DHT22;20538;51.528;9.942;2022-10-26T10:01:48;14.80;99.90
34279;DHT22;20538;51.528;9.942;2022-10-26T10:06:52;14.80;99.90
34279;DHT22;20538;51.528;9.942;2022-10-26T10:09:35;14.80;99.90
34279;DHT22;20538;51.528;9.942;2022-10-26T10:12:02;14.80;99.90
34279;DHT22;20538;51.528;9.942;2022-10-26T10:14:39;15.00;99.90
34279;DHT22;20538;51.528;9.942;2022-10-26T10:17:20;15.00;99.90
34279;DHT22;20538;51.528;9.942;2022-10-26T10:19:47;15.10;99.90
34279;DHT22;20538;51.528;9.942;2022-10-26T10:24:56;15.30;99.90
34279;DHT22;20538;51.528;9.942;2022-10-26T10:27:22;15.40;99.90
34279;DHT22;20538;51.528;9.942;2022-10-26T10:29:54;15.50;99.90
34279;DHT22;20538;51.528;9.942;2022-10-26T10:34:48;15.60;99.90
34279;DHT22;20538;51.528;9.942;2022-10-26T10:37:27;15.50;99.90
34279;DHT22;20538;51.528;9.942;2022-10-26T10:39:57;15.60;99.90
34279;DHT22;20538;51.528;9.942;2022-10-26T10:42:26;15.60;99.90
34279;DHT22;20538;51.528;9.942;2022-10-26T10:44:56;15.60;99.90
34279;DHT22;20538;51.528;9.942;2022-10-26T10:50:02;15.60;99.90
34279;DHT22;20538;51.528;9.942;2022-10-26T10:52:34;15.60;99.90
34279;DHT22;20538;51.528;9.942;2022-10-26T11:00:35;15.70;99.90
34279;DHT22;20538;51.528;9.942;2022-10-26T11:06:15;15.90;99.90
34279;DHT22;20538;51.528;9.942;2022-10-26T11:08:46;16.00;99.90
34279;DHT22;20538;51.528;9.942;2022-10-26T11:11:36;16.20;99.90
34279;DHT22;20538;51.528;9.942;2022-10-26T11:14:25;16.50;99.90
34279;DHT22;20538;51.528;9.942;2022-10-26T11:17:03;16.60;99.90
34279;DHT22;20538;51.528;9.942;2022-10-26T11:19:39;16.60;99.90
34279;DHT22;20538;51.528;9.942;2022-10-26T11:22:12;16.60;99.90
34279;DHT22;20538;51.528;9.942;2022-10-26T11:27:33;16.30;99.90
34279;DHT22;20538;51.528;9.942;2022-10-26T11:30:19;16.20;99.90
34279;DHT22;20538;51.528;9.942;2022-10-26T11:32:55;16.20;99.90
34279;DHT22;20538;51.528;9.942;2022-10-26T11:43:39;16.10;99.90
34279;DHT22;20538;51.528;9.942;2022-10-26T11:46:27;16.10;99.90
34279;DHT22;20538;51.528;9.942;2022-10-26T11:49:04;16.00;99.90
34279;DHT22;20538;51.528;9.942;2022-10-26T11:51:46;15.90;99.90
34279;DHT22;20538;51.528;9.942;2022-10-26T11:54:41;15.70;99.90
34279;DHT22;20538;51.528;9.942;2022-10-26T11:57:10;15.70;99.90
34279;DHT22;20538;51.528;9.942;2022-10-26T11:59:42;15.80;99.90
34279;DHT22;20538;51.528;9.942;2022-10-26T12:02:23;16.00;99.90
34279;DHT22;20538;51.528;9.942;2022-10-26T12:07:32;16.20;99.90
34279;DHT22;20538;51.528;9.942;2022-10-26T12:10:00;16.50;99.90
34279;DHT22;20538;51.528;9.942;2022-10-26T12:15:20;16.90;99.90
34279;DHT22;20538;51.528;9.942;2022-10-26T12:17:53;17.00;99.90
34279;DHT22;20538;51.528;9.942;2022-10-26T12:20:48;17.00;99.90
34279;DHT22;20538;51.528;9.942;2022-10-26T12:23:16;17.00;99.90
34279;DHT22;20538;51.528;9.942;2022-10-26T12:25:42;16.90;99.90
34279;DHT22;20538;51.528;9.942;2022-10-26T12:28:43;16.90;99.90
34279;DHT22;20538;51.528;9.942;2022-10-26T12:31:44;16.80;99.90
34279;DHT22;20538;51.528;9.942;2022-10-26T12:34:12;16.70;99.90
34279;DHT22;20538;51.528;9.942;2022-10-26T12:39:35;16.70;99.90
34279;DHT22;20538;51.528;9.942;2022-10-26T12:55:46;16.80;99.90
34279;DHT22;20538;51.528;9.942;2022-10-26T12:58:45;16.80;99.90
34279;DHT22;20538;51.528;9.942;2022-10-26T13:01:39;16.80;99.90
34279;DHT22;20538;51.528;9.942;2022-10-26T13:06:53;16.90;99.90
34279;DHT22;20538;51.528;9.942;2022-10-26T13:09:29;16.90;99.90
34279;DHT22;20538;51.528;9.942;2022-10-26T13:12:00;16.90;99.90
34279;DHT22;20538;51.528;9.942;2022-10-26T13:15:17;16.90;99.90
34279;DHT22;20538;51.528;9.942;2022-10-26T13:17:27;17.00;99.90
34279;DHT22;20538;51.528;9.942;2022-10-26T13:19:56;17.00;99.90
34279;DHT22;20538;51.528;9.942;2022-10-26T13:22:23;17.00;99.90
34279;DHT22;20538;51.528;9.942;2022-10-26T13:24:58;17.00;99.90
34279;DHT22;20538;51.528;9.942;2022-10-26T13:30:17;17.10;99.90
34279;DHT22;20538;51.528;9.942;2022-10-26T13:32:54;17.10;99.90
34279;DHT22;20538;51.528;9.942;2022-10-26T13:35:22;17.10;99.90
34279;DHT22;20538;51.528;9.942;2022-10-26T13:37:51;17.00;99.90
34279;DHT22;20538;51.528;9.942;2022-10-26T13:40:20;17.00;99.90
34279;DHT22;20538;51.528;9.942;2022-10-26T13:43:03;17.10;99.90
34279;DHT22;20538;51.528;9.942;2022-10-26T13:45:33;17.10;99.90
34279;DHT22;20538;51.528;9.942;2022-10-26T13:48:15;17.10;99.90
34279;DHT22;20538;51.528;9.942;2022-10-26T13:50:59;17.10;99.90
34279;DHT22;20538;51.528;9.942;2022-10-26T13:53:40;17.10;99.90
34279;DHT22;20538;51.528;9.942;2022-10-26T13:58:47;17.20;99.90
34279;DHT22;20538;51.528;9.942;2022-10-26T14:01:16;17.20;99.90
34279;DHT22;20538;51.528;9.942;2022-10-26T14:03:46;17.10;99.90
34279;DHT22;20538;51.528;9.942;2022-10-26T14:06:37;17.20;99.90
34279;DHT22;20538;51.528;9.942;2022-10-26T14:09:05;17.20;99.90
34279;DHT22;20538;51.528;9.942;2022-10-26T14:11:48;17.20;99.90
34279;DHT22;20538;51.528;9.942;2022-10-26T14:14:20;17.20;99.90
34279;DHT22;20538;51.528;9.942;2022-10-26T14:16:49;17.20;99.90
34279;DHT22;20538;51.528;9.942;2022-10-26T14:19:36;17.20;99.90
34279;DHT22;20538;51.528;9.942;2022-10-26T14:22:04;17.20;99.90
34279;DHT22;20538;51.528;9.942;2022-10-26T14:24:32;17.20;99.90
34279;DHT22;20538;51.528;9.942;2022-10-26T14:26:59;17.20;99.90
34279;DHT22;20538;51.528;9.942;2022-10-26T14:29:27;17.20;99.90
34279;DHT22;20538;51.528;9.942;2022-10-26T14:31:55;17.10;99.90
34279;DHT22;20538;51.528;9.942;2022-10-26T14:34:21;17.10;99.90
34279;DHT22;20538;51.528;9.942;2022-10-26T14:37:00;17.00;99.90
34279;DHT22;20538;51.528;9.942;2022-10-26T14:39:34;17.00;99.90
34279;DHT22;20538;51.528;9.942;2022-10-26T14:42:05;17.00;99.90
34279;DHT22;20538;51.528;9.942;2022-10-26T14:44:35;17.00;99.90
34279;DHT22;20538;51.528;9.942;2022-10-26T14:47:02;17.00;99.90
34279;DHT22;20538;51.528;9.942;2022-10-26T14:49:27;17.00;99.90
34279;DHT22;20538;51.528;9.942;2022-10-26T14:51:58;17.00;99.90
34279;DHT22;20538;51.528;9.942;2022-10-26T14:54:26;17.00;99.90
34279;DHT22;20538;51.528;9.942;2022-10-26T14:56:53;16.90;99.90
34279;DHT22;20538;51.528;9.942;2022-10-26T14:59:28;16.90;99.90
34279;DHT22;20538;51.528;9.942;2022-10-26T15:01:56;16.80;99.90
34279;DHT22;20538;51.528;9.942;2022-10-26T15:04:27;16.90;99.90
34279;DHT22;20538;51.528;9.942;2022-10-26T15:07:01;16.80;99.90
34279;DHT22;20538;51.528;9.942;2022-10-26T15:09:44;16.80;99.90
34279;DHT22;20538;51.528;9.942;2022-10-26T15:12:20;16.70;99.90
34279;DHT22;20538;51.528;9.942;2022-10-26T15:14:47;16.60;99.90
34279;DHT22;20538;51.528;9.942;2022-10-26T15:17:23;16.60;99.90
34279;DHT22;20538;51.528;9.942;2022-10-26T15:19:50;16.50;99.90
34279;DHT22;20538;51.528;9.942;2022-10-26T15:22:25;16.40;99.90
34279;DHT22;20538;51.528;9.942;2022-10-26T15:24:54;16.30;99.90
34279;DHT22;20538;51.528;9.942;2022-10-26T15:27:21;16.30;99.90
34279;DHT22;20538;51.528;9.942;2022-10-26T15:30:07;16.20;99.90
34279;DHT22;20538;51.528;9.942;2022-10-26T15:32:33;16.20;99.90
34279;DHT22;20538;51.528;9.942;2022-10-26T15:37:37;16.10;99.90
34279;DHT22;20538;51.528;9.942;2022-10-26T15:40:03;16.00;99.90
34279;DHT22;20538;51.528;9.942;2022-10-26T15:42:28;16.00;99.90
34279;DHT22;20538;51.528;9.942;2022-10-26T15:44:54;15.90;99.90
34279;DHT22;20538;51.528;9.942;2022-10-26T15:47:20;15.90;99.90
34279;DHT22;20538;51.528;9.942;2022-10-26T15:49:46;15.80;99.90
34279;DHT22;20538;51.528;9.942;2022-10-26T15:52:12;15.80;99.90
34279;DHT22;20538;51.528;9.942;2022-10-26T15:54:38;15.70;99.90
34279;DHT22;20538;51.528;9.942;2022-10-26T15:57:04;15.70;99.90
34279;DHT22;20538;51.528;9.942;2022-10-26T15:59:31;15.60;99.90
34279;DHT22;20538;51.528;9.942;2022-10-26T16:01:56;15.50;99.90
34279;DHT22;20538;51.528;9.942;2022-10-26T16:04:22;15.40;99.90
34279;DHT22;20538;51.528;9.942;2022-10-26T16:06:47;15.30;99.90
34279;DHT22;20538;51.528;9.942;2022-10-26T16:09:15;15.30;99.90
34279;DHT22;20538;51.528;9.942;2022-10-26T16:11:43;15.20;99.90
34279;DHT22;20538;51.528;9.942;2022-10-26T16:14:09;15.10;99.90
34279;DHT22;20538;51.528;9.942;2022-10-26T16:16:35;15.00;99.90
34279;DHT22;20538;51.528;9.942;2022-10-26T16:19:01;15.00;99.90
34279;DHT22;20538;51.528;9.942;2022-10-26T16:21:27;15.00;99.90
34279;DHT22;20538;51.528;9.942;2022-10-26T16:23:54;14.90;99.90
34279;DHT22;20538;51.528;9.942;2022-10-26T16:26:21;14.90;99.90
34279;DHT22;20538;51.528;9.942;2022-10-26T16:28:47;14.80;99.90
34279;DHT22;20538;51.528;9.942;2022-10-26T16:31:15;14.80;99.90
34279;DHT22;20538;51.528;9.942;2022-10-26T16:33:41;14.80;99.90
34279;DHT22;20538;51.528;9.942;2022-10-26T16:36:09;14.80;99.90
34279;DHT22;20538;51.528;9.942;2022-10-26T16:38:34;14.60;99.90
34279;DHT22;20538;51.528;9.942;2022-10-26T16:41:06;14.60;99.90
34279;DHT22;20538;51.528;9.942;2022-10-26T16:43:34;14.60;99.90
34279;DHT22;20538;51.528;9.942;2022-10-26T16:46:04;14.60;99.90
34279;DHT22;20538;51.528;9.942;2022-10-26T16:48:30;14.70;99.90
34279;DHT22;20538;51.528;9.942;2022-10-26T16:50:56;14.80;99.90
34279;DHT22;20538;51.528;9.942;2022-10-26T16:53:22;14.70;99.90
34279;DHT22;20538;51.528;9.942;2022-10-26T16:55:48;14.70;99.90
34279;DHT22;20538;51.528;9.942;2022-10-26T16:58:13;14.70;99.90
34279;DHT22;20538;51.528;9.942;2022-10-26T17:00:39;14.70;99.90
34279;DHT22;20538;51.528;9.942;2022-10-26T17:03:05;14.70;99.90
34279;DHT22;20538;51.528;9.942;2022-10-26T17:05:30;14.60;99.90
34279;DHT22;20538;51.528;9.942;2022-10-26T17:07:56;14.60;99.90
34279;DHT22;20538;51.528;9.942;2022-10-26T17:10:22;14.60;99.90
34279;DHT22;20538;51.528;9.942;2022-10-26T17:12:47;14.50;99.90
34279;DHT22;20538;51.528;9.942;2022-10-26T17:15:13;14.50;99.90
34279;DHT22;20538;51.528;9.942;2022-10-26T17:17:39;14.50;99.90
34279;DHT22;20538;51.528;9.942;2022-10-26T17:20:08;14.50;99.90
34279;DHT22;20538;51.528;9.942;2022-10-26T17:22:34;14.60;99.90
34279;DHT22;20538;51.528;9.942;2022-10-26T17:24:59;14.60;99.90
34279;DHT22;20538;51.528;9.942;2022-10-26T17:27:28;14.50;99.90
34279;DHT22;20538;51.528;9.942;2022-10-26T17:29:53;14.50;99.90
34279;DHT22;20538;51.528;9.942;2022-10-26T17:32:19;14.50;99.90
34279;DHT22;20538;51.528;9.942;2022-10-26T17:34:46;14.40;99.90
34279;DHT22;20538;51.528;9.942;2022-10-26T17:37:12;14.40;99.90
34279;DHT22;20538;51.528;9.942;2022-10-26T17:39:37;14.30;99.90
34279;DHT22;20538;51.528;9.942;2022-10-26T17:42:03;14.20;99.90
34279;DHT22;20538;51.528;9.942;2022-10-26T17:44:29;14.20;99.90
34279;DHT22;20538;51.528;9.942;2022-10-26T17:46:54;14.30;99.90
34279;DHT22;20538;51.528;9.942;2022-10-26T17:49:20;14.20;99.90
34279;DHT22;20538;51.528;9.942;2022-10-26T17:51:45;14.20;99.90
34279;DHT22;20538;51.528;9.942;2022-10-26T17:54:11;14.20;99.90
34279;DHT22;20538;51.528;9.942;2022-10-26T17:56:37;14.10;99.90
34279;DHT22;20538;51.528;9.942;2022-10-26T17:59:05;14.00;99.90
34279;DHT22;20538;51.528;9.942;2022-10-26T18:01:33;14.00;99.90
34279;DHT22;20538;51.528;9.942;2022-10-26T18:03:59;13.90;99.90
34279;DHT22;20538;51.528;9.942;2022-10-26T18:06:25;13.90;99.90
34279;DHT22;20538;51.528;9.942;2022-10-26T18:08:51;13.80;99.90
34279;DHT22;20538;51.528;9.942;2022-10-26T18:11:19;13.80;99.90
34279;DHT22;20538;51.528;9.942;2022-10-26T18:13:46;13.80;99.90
34279;DHT22;20538;51.528;9.942;2022-10-26T18:16:19;13.70;99.90